sensor_id;sensor_type;location;lat;lon;timestamp;temperature;humidity
15257;DHT22;7731;50.720;6.912;2022-12-20T00:00:41;10.90;99.90
15257;DHT22;7731;50.720;6.912;2022-12-20T00:03:11;10.90;99.90
15257;DHT22;7731;50.720;6.912;2022-12-20T00:05:43;11.00;99.90
15257;DHT22;7731;50.720;6.912;2022-12-20T00:08:13;10.90;99.90
15257;DHT22;7731;50.720;6.912;2022-12-20T00:10:44;10.90;99.90
15257;DHT22;7731;50.720;6.912;2022-12-20T00:13:18;10.90;99.90
15257;DHT22;7731;50.720;6.912;2022-12-20T00:15:48;10.90;99.90
15257;DHT22;7731;50.720;6.912;2022-12-20T00:18:18;10.90;99.90
15257;DHT22;7731;50.720;6.912;2022-12-20T00:20:48;10.90;99.90
15257;DHT22;7731;50.720;6.912;2022-12-20T00:23:27;10.90;99.90
15257;DHT22;7731;50.720;6.912;2022-12-20T00:26:03;10.90;99.90
15257;DHT22;7731;50.720;6.912;2022-12-20T00:28:38;10.90;99.90
15257;DHT22;7731;50.720;6.912;2022-12-20T00:31:10;10.80;99.90
15257;DHT22;7731;50.720;6.912;2022-12-20T00:33:45;10.90;99.90
15257;DHT22;7731;50.720;6.912;2022-12-20T00:36:19;11.00;99.90
15257;DHT22;7731;50.720;6.912;2022-12-20T00:38:52;11.10;99.90
15257;DHT22;7731;50.720;6.912;2022-12-20T00:41:26;11.00;99.90
15257;DHT22;7731;50.720;6.912;2022-12-20T00:44:00;11.00;99.90
15257;DHT22;7731;50.720;6.912;2022-12-20T00:46:31;11.00;99.90
15257;DHT22;7731;50.720;6.912;2022-12-20T00:49:02;10.90;99.90
15257;DHT22;7731;50.720;6.912;2022-12-20T00:51:33;10.90;99.90
15257;DHT22;7731;50.720;6.912;2022-12-20T00:54:05;10.90;99.90
15257;DHT22;7731;50.720;6.912;2022-12-20T00:56:36;11.00;99.90
15257;DHT22;7731;50.720;6.912;2022-12-20T00:59:08;11.00;99.90
15257;DHT22;7731;50.720;6.912;2022-12-20T01:01:39;10.90;99.90
15257;DHT22;7731;50.720;6.912;2022-12-20T01:04:09;10.90;99.90
15257;DHT22;7731;50.720;6.912;2022-12-20T01:06:39;11.00;99.90
15257;DHT22;7731;50.720;6.912;2022-12-20T01:09:10;10.90;99.90
15257;DHT22;7731;50.720;6.912;2022-12-20T01:11:41;11.00;99.90
15257;DHT22;7731;50.720;6.912;2022-12-20T01:14:16;11.00;99.90
15257;DHT22;7731;50.720;6.912;2022-12-20T01:16:47;11.00;99.90
15257;DHT22;7731;50.720;6.912;2022-12-20T01:19:18;11.00;99.90
15257;DHT22;7731;50.720;6.912;2022-12-20T01:21:48;11.00;99.90
15257;DHT22;7731;50.720;6.912;2022-12-20T01:24:19;10.90;99.90
15257;DHT22;7731;50.720;6.912;2022-12-20T01:26:49;10.90;99.90
15257;DHT22;7731;50.720;6.912;2022-12-20T01:29:22;10.80;99.90
15257;DHT22;7731;50.720;6.912;2022-12-20T01:31:52;10.80;99.90
15257;DHT22;7731;50.720;6.912;2022-12-20T01:34:22;10.80;99.90
15257;DHT22;7731;50.720;6.912;2022-12-20T01:36:52;10.80;99.90
15257;DHT22;7731;50.720;6.912;2022-12-20T01:39:22;10.80;99.90
15257;DHT22;7731;50.720;6.912;2022-12-20T01:41:52;10.90;99.90
15257;DHT22;7731;50.720;6.912;2022-12-20T01:44:54;10.90;99.90
15257;DHT22;7731;50.720;6.912;2022-12-20T01:47:37;10.90;99.90
15257;DHT22;7731;50.720;6.912;2022-12-20T01:50:08;10.80;99.90
15257;DHT22;7731;50.720;6.912;2022-12-20T01:52:40;10.80;99.90
15257;DHT22;7731;50.720;6.912;2022-12-20T01:55:16;10.80;99.90
15257;DHT22;7731;50.720;6.912;2022-12-20T01:57:54;10.70;99.90
15257;DHT22;7731;50.720;6.912;2022-12-20T02:00:32;10.70;99.90
15257;DHT22;7731;50.720;6.912;2022-12-20T02:03:05;10.70;99.90
15257;DHT22;7731;50.720;6.912;2022-12-20T02:05:41;10.70;99.90
15257;DHT22;7731;50.720;6.912;2022-12-20T02:08:16;10.70;99.90
15257;DHT22;7731;50.720;6.912;2022-12-20T02:11:02;10.70;99.90
15257;DHT22;7731;50.720;6.912;2022-12-20T02:13:51;10.70;99.90
15257;DHT22;7731;50.720;6.912;2022-12-20T02:16:42;10.70;99.90
15257;DHT22;7731;50.720;6.912;2022-12-20T02:19:44;10.60;99.90
15257;DHT22;7731;50.720;6.912;2022-12-20T02:22:56;10.60;99.90
15257;DHT22;7731;50.720;6.912;2022-12-20T02:25:48;10.60;99.90
15257;DHT22;7731;50.720;6.912;2022-12-20T02:28:39;10.60;99.90
15257;DHT22;7731;50.720;6.912;2022-12-20T02:31:33;10.60;99.90
15257;DHT22;7731;50.720;6.912;2022-12-20T02:34:11;10.60;99.90
15257;DHT22;7731;50.720;6.912;2022-12-20T02:36:43;10.60;99.90
15257;DHT22;7731;50.720;6.912;2022-12-20T02:39:15;10.60;99.90
15257;DHT22;7731;50.720;6.912;2022-12-20T02:41:51;10.70;99.90
15257;DHT22;7731;50.720;6.912;2022-12-20T02:44:26;10.80;99.90
15257;DHT22;7731;50.720;6.912;2022-12-20T02:47:20;10.80;99.90
15257;DHT22;7731;50.720;6.912;2022-12-20T02:49:54;10.80;99.90
15257;DHT22;7731;50.720;6.912;2022-12-20T02:52:26;10.80;99.90
15257;DHT22;7731;50.720;6.912;2022-12-20T02:55:00;10.70;99.90
15257;DHT22;7731;50.720;6.912;2022-12-20T02:57:38;10.60;99.90
15257;DHT22;7731;50.720;6.912;2022-12-20T03:00:16;10.50;99.90
15257;DHT22;7731;50.720;6.912;2022-12-20T03:02:51;10.50;99.90
15257;DHT22;7731;50.720;6.912;2022-12-20T03:05:38;10.50;99.90
15257;DHT22;7731;50.720;6.912;2022-12-20T03:08:14;10.50;99.90
15257;DHT22;7731;50.720;6.912;2022-12-20T03:10:44;10.50;99.90
15257;DHT22;7731;50.720;6.912;2022-12-20T03:13:15;10.50;99.90
15257;DHT22;7731;50.720;6.912;2022-12-20T03:15:45;10.60;99.90
15257;DHT22;7731;50.720;6.912;2022-12-20T03:18:18;10.60;99.90
15257;DHT22;7731;50.720;6.912;2022-12-20T03:20:48;10.70;99.90
15257;DHT22;7731;50.720;6.912;2022-12-20T03:23:19;10.60;99.90
15257;DHT22;7731;50.720;6.912;2022-12-20T03:25:50;10.50;99.90
15257;DHT22;7731;50.720;6.912;2022-12-20T03:28:20;10.50;99.90
15257;DHT22;7731;50.720;6.912;2022-12-20T03:30:50;10.50;99.90
15257;DHT22;7731;50.720;6.912;2022-12-20T03:33:23;10.50;99.90
15257;DHT22;7731;50.720;6.912;2022-12-20T03:35:53;10.50;99.90
15257;DHT22;7731;50.720;6.912;2022-12-20T03:38:23;10.50;99.90
15257;DHT22;7731;50.720;6.912;2022-12-20T03:40:54;10.50;99.90
15257;DHT22;7731;50.720;6.912;2022-12-20T03:43:24;10.50;99.90
15257;DHT22;7731;50.720;6.912;2022-12-20T03:45:54;10.50;99.90
15257;DHT22;7731;50.720;6.912;2022-12-20T03:48:27;10.50;99.90
15257;DHT22;7731;50.720;6.912;2022-12-20T03:50:59;10.50;99.90
15257;DHT22;7731;50.720;6.912;2022-12-20T03:53:29;10.50;99.90
15257;DHT22;7731;50.720;6.912;2022-12-20T03:55:59;10.50;99.90
15257;DHT22;7731;50.720;6.912;2022-12-20T03:58:29;10.60;99.90
15257;DHT22;7731;50.720;6.912;2022-12-20T04:00:59;10.50;99.90
15257;DHT22;7731;50.720;6.912;2022-12-20T04:03:32;10.50;99.90
15257;DHT22;7731;50.720;6.912;2022-12-20T04:06:03;10.60;99.90
15257;DHT22;7731;50.720;6.912;2022-12-20T04:08:34;10.50;99.90
15257;DHT22;7731;50.720;6.912;2022-12-20T04:11:05;10.50;99.90
15257;DHT22;7731;50.720;6.912;2022-12-20T04:13:46;10.40;99.90
15257;DHT22;7731;50.720;6.912;2022-12-20T04:16:21;10.40;99.90
15257;DHT22;7731;50.720;6.912;2022-12-20T04:18:55;10.40;99.90
15257;DHT22;7731;50.720;6.912;2022-12-20T04:21:28;10.40;99.90
15257;DHT22;7731;50.720;6.912;2022-12-20T04:24:06;10.40;99.90
15257;DHT22;7731;50.720;6.912;2022-12-20T04:26:38;10.30;99.90
15257;DHT22;7731;50.720;6.912;2022-12-20T04:29:08;10.30;99.90
15257;DHT22;7731;50.720;6.912;2022-12-20T04:31:38;10.30;99.90
15257;DHT22;7731;50.720;6.912;2022-12-20T04:34:11;10.30;99.90
15257;DHT22;7731;50.720;6.912;2022-12-20T04:36:41;10.20;99.90
15257;DHT22;7731;50.720;6.912;2022-12-20T04:39:12;10.20;99.90
15257;DHT22;7731;50.720;6.912;2022-12-20T04:41:43;10.20;99.90
15257;DHT22;7731;50.720;6.912;2022-12-20T04:44:13;10.20;99.90
15257;DHT22;7731;50.720;6.912;2022-12-20T04:46:44;10.10;99.90
15257;DHT22;7731;50.720;6.912;2022-12-20T04:49:18;10.10;99.90
15257;DHT22;7731;50.720;6.912;2022-12-20T04:51:48;10.10;99.90
15257;DHT22;7731;50.720;6.912;2022-12-20T04:54:19;10.10;99.90
15257;DHT22;7731;50.720;6.912;2022-12-20T04:56:53;10.10;99.90
15257;DHT22;7731;50.720;6.912;2022-12-20T04:59:23;10.20;99.90
15257;DHT22;7731;50.720;6.912;2022-12-20T05:01:53;10.20;99.90
15257;DHT22;7731;50.720;6.912;2022-12-20T05:04:26;10.20;99.90
15257;DHT22;7731;50.720;6.912;2022-12-20T05:07:03;10.10;99.90
15257;DHT22;7731;50.720;6.912;2022-12-20T05:09:42;10.10;99.90
15257;DHT22;7731;50.720;6.912;2022-12-20T05:12:17;10.10;99.90
15257;DHT22;7731;50.720;6.912;2022-12-20T05:14:49;10.10;99.90
15257;DHT22;7731;50.720;6.912;2022-12-20T05:17:19;10.10;99.90
15257;DHT22;7731;50.720;6.912;2022-12-20T05:19:54;10.10;99.90
15257;DHT22;7731;50.720;6.912;2022-12-20T05:22:24;10.20;99.90
15257;DHT22;7731;50.720;6.912;2022-12-20T05:25:08;10.20;99.90
15257;DHT22;7731;50.720;6.912;2022-12-20T05:27:52;10.20;99.90
15257;DHT22;7731;50.720;6.912;2022-12-20T05:30:22;10.10;99.90
15257;DHT22;7731;50.720;6.912;2022-12-20T05:32:52;10.20;99.90
15257;DHT22;7731;50.720;6.912;2022-12-20T05:35:25;10.20;99.90
15257;DHT22;7731;50.720;6.912;2022-12-20T05:37:55;10.20;99.90
15257;DHT22;7731;50.720;6.912;2022-12-20T05:40:26;10.30;99.90
15257;DHT22;7731;50.720;6.912;2022-12-20T05:42:56;10.20;99.90
15257;DHT22;7731;50.720;6.912;2022-12-20T05:45:26;10.20;99.90
15257;DHT22;7731;50.720;6.912;2022-12-20T05:47:57;10.20;99.90
15257;DHT22;7731;50.720;6.912;2022-12-20T05:50:29;10.10;99.90
15257;DHT22;7731;50.720;6.912;2022-12-20T05:53:00;10.20;99.90
15257;DHT22;7731;50.720;6.912;2022-12-20T05:55:37;10.20;99.90
15257;DHT22;7731;50.720;6.912;2022-12-20T05:58:10;10.20;99.90
15257;DHT22;7731;50.720;6.912;2022-12-20T06:00:42;10.20;99.90
15257;DHT22;7731;50.720;6.912;2022-12-20T06:03:14;10.40;99.90
15257;DHT22;7731;50.720;6.912;2022-12-20T06:05:47;10.30;99.90
15257;DHT22;7731;50.720;6.912;2022-12-20T06:08:18;10.30;99.90
15257;DHT22;7731;50.720;6.912;2022-12-20T06:10:50;10.30;99.90
15257;DHT22;7731;50.720;6.912;2022-12-20T06:13:20;10.40;99.90
15257;DHT22;7731;50.720;6.912;2022-12-20T06:15:53;10.50;99.90
15257;DHT22;7731;50.720;6.912;2022-12-20T06:18:24;10.60;99.90
15257;DHT22;7731;50.720;6.912;2022-12-20T06:20:56;10.60;99.90
15257;DHT22;7731;50.720;6.912;2022-12-20T06:23:28;10.60;99.90
15257;DHT22;7731;50.720;6.912;2022-12-20T06:26:00;10.50;99.90
15257;DHT22;7731;50.720;6.912;2022-12-20T06:28:31;10.50;99.90
15257;DHT22;7731;50.720;6.912;2022-12-20T06:31:02;10.60;99.90
15257;DHT22;7731;50.720;6.912;2022-12-20T06:33:33;10.60;99.90
15257;DHT22;7731;50.720;6.912;2022-12-20T06:36:08;10.60;99.90
15257;DHT22;7731;50.720;6.912;2022-12-20T06:38:38;10.70;99.90
15257;DHT22;7731;50.720;6.912;2022-12-20T06:41:08;10.70;99.90
15257;DHT22;7731;50.720;6.912;2022-12-20T06:43:38;10.70;99.90
15257;DHT22;7731;50.720;6.912;2022-12-20T06:46:09;10.80;99.90
15257;DHT22;7731;50.720;6.912;2022-12-20T06:48:40;10.80;99.90
15257;DHT22;7731;50.720;6.912;2022-12-20T06:51:14;10.80;99.90
15257;DHT22;7731;50.720;6.912;2022-12-20T06:53:45;10.70;99.90
15257;DHT22;7731;50.720;6.912;2022-12-20T06:56:19;10.80;99.90
15257;DHT22;7731;50.720;6.912;2022-12-20T06:58:50;10.70;99.90
15257;DHT22;7731;50.720;6.912;2022-12-20T07:01:21;10.60;99.90
15257;DHT22;7731;50.720;6.912;2022-12-20T07:03:52;10.60;99.90
15257;DHT22;7731;50.720;6.912;2022-12-20T07:06:24;10.60;99.90
15257;DHT22;7731;50.720;6.912;2022-12-20T07:08:57;10.70;99.90
15257;DHT22;7731;50.720;6.912;2022-12-20T07:11:28;10.70;99.90
15257;DHT22;7731;50.720;6.912;2022-12-20T07:13:58;10.60;99.90
15257;DHT22;7731;50.720;6.912;2022-12-20T07:16:29;10.70;99.90
15257;DHT22;7731;50.720;6.912;2022-12-20T07:19:00;10.70;99.90
15257;DHT22;7731;50.720;6.912;2022-12-20T07:21:35;10.80;99.90
15257;DHT22;7731;50.720;6.912;2022-12-20T07:24:07;10.90;99.90
15257;DHT22;7731;50.720;6.912;2022-12-20T07:26:37;10.80;99.90
15257;DHT22;7731;50.720;6.912;2022-12-20T07:29:07;10.80;99.90
15257;DHT22;7731;50.720;6.912;2022-12-20T07:31:42;10.80;99.90
15257;DHT22;7731;50.720;6.912;2022-12-20T07:34:12;10.90;99.90
15257;DHT22;7731;50.720;6.912;2022-12-20T07:36:45;10.80;99.90
15257;DHT22;7731;50.720;6.912;2022-12-20T07:39:17;10.80;99.90
15257;DHT22;7731;50.720;6.912;2022-12-20T07:41:47;10.80;99.90
15257;DHT22;7731;50.720;6.912;2022-12-20T07:44:17;10.90;99.90
15257;DHT22;7731;50.720;6.912;2022-12-20T07:46:48;10.90;99.90
15257;DHT22;7731;50.720;6.912;2022-12-20T07:49:18;10.90;99.90
15257;DHT22;7731;50.720;6.912;2022-12-20T07:51:54;10.90;99.90
15257;DHT22;7731;50.720;6.912;2022-12-20T07:54:31;11.00;99.90
15257;DHT22;7731;50.720;6.912;2022-12-20T07:57:08;11.00;99.90
15257;DHT22;7731;50.720;6.912;2022-12-20T07:59:45;11.10;99.90
15257;DHT22;7731;50.720;6.912;2022-12-20T08:02:22;11.10;99.90
15257;DHT22;7731;50.720;6.912;2022-12-20T08:04:56;11.20;99.90
15257;DHT22;7731;50.720;6.912;2022-12-20T08:07:30;11.20;99.90
15257;DHT22;7731;50.720;6.912;2022-12-20T08:10:01;11.30;99.90
15257;DHT22;7731;50.720;6.912;2022-12-20T08:12:32;11.20;99.90
15257;DHT22;7731;50.720;6.912;2022-12-20T08:15:05;11.20;99.90
15257;DHT22;7731;50.720;6.912;2022-12-20T08:17:36;11.20;99.90
15257;DHT22;7731;50.720;6.912;2022-12-20T08:20:07;11.20;99.90
15257;DHT22;7731;50.720;6.912;2022-12-20T08:22:41;11.20;99.90
15257;DHT22;7731;50.720;6.912;2022-12-20T08:25:11;11.20;99.90
15257;DHT22;7731;50.720;6.912;2022-12-20T08:27:41;11.20;99.90
15257;DHT22;7731;50.720;6.912;2022-12-20T08:30:14;11.20;99.90
15257;DHT22;7731;50.720;6.912;2022-12-20T08:32:45;11.20;99.90
15257;DHT22;7731;50.720;6.912;2022-12-20T08:35:16;11.20;99.90
15257;DHT22;7731;50.720;6.912;2022-12-20T08:37:50;11.20;99.90
15257;DHT22;7731;50.720;6.912;2022-12-20T08:40:21;11.20;99.90
15257;DHT22;7731;50.720;6.912;2022-12-20T08:42:52;11.20;99.90
15257;DHT22;7731;50.720;6.912;2022-12-20T08:45:22;11.30;99.90
15257;DHT22;7731;50.720;6.912;2022-12-20T08:47:55;11.30;99.90
15257;DHT22;7731;50.720;6.912;2022-12-20T08:50:25;11.20;99.90
15257;DHT22;7731;50.720;6.912;2022-12-20T08:52:58;11.30;99.90
15257;DHT22;7731;50.720;6.912;2022-12-20T08:55:31;11.20;99.90
15257;DHT22;7731;50.720;6.912;2022-12-20T08:58:02;11.30;99.90
15257;DHT22;7731;50.720;6.912;2022-12-20T09:00:32;11.40;99.90
15257;DHT22;7731;50.720;6.912;2022-12-20T09:03:02;11.40;99.90
15257;DHT22;7731;50.720;6.912;2022-12-20T09:05:34;11.30;99.90
15257;DHT22;7731;50.720;6.912;2022-12-20T09:08:07;11.30;99.90
15257;DHT22;7731;50.720;6.912;2022-12-20T09:10:37;11.30;99.90
15257;DHT22;7731;50.720;6.912;2022-12-20T09:13:07;11.30;99.90
15257;DHT22;7731;50.720;6.912;2022-12-20T09:15:40;11.20;99.90
15257;DHT22;7731;50.720;6.912;2022-12-20T09:18:11;11.20;99.90
15257;DHT22;7731;50.720;6.912;2022-12-20T09:20:43;11.30;99.90
15257;DHT22;7731;50.720;6.912;2022-12-20T09:23:17;11.30;99.90
15257;DHT22;7731;50.720;6.912;2022-12-20T09:25:47;11.30;99.90
15257;DHT22;7731;50.720;6.912;2022-12-20T09:28:23;11.20;99.90
15257;DHT22;7731;50.720;6.912;2022-12-20T09:30:57;11.20;99.90
15257;DHT22;7731;50.720;6.912;2022-12-20T09:33:29;11.20;99.90
15257;DHT22;7731;50.720;6.912;2022-12-20T09:36:00;11.10;99.90
15257;DHT22;7731;50.720;6.912;2022-12-20T09:38:34;11.10;99.90
15257;DHT22;7731;50.720;6.912;2022-12-20T09:41:15;11.20;99.90
15257;DHT22;7731;50.720;6.912;2022-12-20T09:43:53;11.40;99.90
15257;DHT22;7731;50.720;6.912;2022-12-20T09:46:24;11.40;99.90
15257;DHT22;7731;50.720;6.912;2022-12-20T09:48:57;11.40;99.90
15257;DHT22;7731;50.720;6.912;2022-12-20T09:51:54;11.30;99.90
15257;DHT22;7731;50.720;6.912;2022-12-20T09:54:53;11.40;99.90
15257;DHT22;7731;50.720;6.912;2022-12-20T09:57:53;11.40;99.90
15257;DHT22;7731;50.720;6.912;2022-12-20T10:00:34;11.40;99.90
15257;DHT22;7731;50.720;6.912;2022-12-20T10:03:20;11.40;99.90
15257;DHT22;7731;50.720;6.912;2022-12-20T10:05:58;11.50;99.90
15257;DHT22;7731;50.720;6.912;2022-12-20T10:08:43;11.50;99.90
15257;DHT22;7731;50.720;6.912;2022-12-20T10:11:36;11.60;99.90
15257;DHT22;7731;50.720;6.912;2022-12-20T10:14:43;11.60;99.90
15257;DHT22;7731;50.720;6.912;2022-12-20T10:17:47;11.60;99.90
15257;DHT22;7731;50.720;6.912;2022-12-20T10:20:35;11.70;99.90
15257;DHT22;7731;50.720;6.912;2022-12-20T10:23:20;11.70;99.90
15257;DHT22;7731;50.720;6.912;2022-12-20T10:26:00;11.70;99.90
15257;DHT22;7731;50.720;6.912;2022-12-20T10:28:34;11.70;99.90
15257;DHT22;7731;50.720;6.912;2022-12-20T10:31:10;11.80;99.90
15257;DHT22;7731;50.720;6.912;2022-12-20T10:33:44;11.90;99.90
15257;DHT22;7731;50.720;6.912;2022-12-20T10:36:20;11.90;99.90
15257;DHT22;7731;50.720;6.912;2022-12-20T10:38:54;11.90;99.90
15257;DHT22;7731;50.720;6.912;2022-12-20T10:41:30;11.90;99.90
15257;DHT22;7731;50.720;6.912;2022-12-20T10:44:21;11.90;99.90
15257;DHT22;7731;50.720;6.912;2022-12-20T10:46:59;11.90;99.90
15257;DHT22;7731;50.720;6.912;2022-12-20T10:49:31;11.90;99.90
15257;DHT22;7731;50.720;6.912;2022-12-20T10:52:11;11.90;99.90
15257;DHT22;7731;50.720;6.912;2022-12-20T10:54:44;11.90;99.90
15257;DHT22;7731;50.720;6.912;2022-12-20T10:57:19;11.90;99.90
15257;DHT22;7731;50.720;6.912;2022-12-20T10:59:55;11.90;99.90
15257;DHT22;7731;50.720;6.912;2022-12-20T11:02:30;12.00;99.90
15257;DHT22;7731;50.720;6.912;2022-12-20T11:05:22;12.00;99.90
15257;DHT22;7731;50.720;6.912;2022-12-20T11:07:56;11.90;99.90
15257;DHT22;7731;50.720;6.912;2022-12-20T11:10:47;12.00;99.90
15257;DHT22;7731;50.720;6.912;2022-12-20T11:13:23;12.00;99.90
15257;DHT22;7731;50.720;6.912;2022-12-20T11:15:58;12.00;99.90
15257;DHT22;7731;50.720;6.912;2022-12-20T11:18:37;12.10;99.90
15257;DHT22;7731;50.720;6.912;2022-12-20T11:21:19;12.10;99.90
15257;DHT22;7731;50.720;6.912;2022-12-20T11:24:01;12.10;99.90
15257;DHT22;7731;50.720;6.912;2022-12-20T11:26:58;12.10;99.90
15257;DHT22;7731;50.720;6.912;2022-12-20T11:30:02;12.10;99.90
15257;DHT22;7731;50.720;6.912;2022-12-20T11:33:03;12.20;99.90
15257;DHT22;7731;50.720;6.912;2022-12-20T11:35:52;12.20;99.90
15257;DHT22;7731;50.720;6.912;2022-12-20T11:38:39;12.20;99.90
15257;DHT22;7731;50.720;6.912;2022-12-20T11:41:20;12.20;99.90
15257;DHT22;7731;50.720;6.912;2022-12-20T11:44:08;12.30;99.90
15257;DHT22;7731;50.720;6.912;2022-12-20T11:47:21;12.30;99.90
15257;DHT22;7731;50.720;6.912;2022-12-20T11:53:20;12.30;99.90
15257;DHT22;7731;50.720;6.912;2022-12-20T11:55:58;12.30;99.90
15257;DHT22;7731;50.720;6.912;2022-12-20T11:58:40;12.30;99.90
15257;DHT22;7731;50.720;6.912;2022-12-20T12:01:24;12.40;99.90
15257;DHT22;7731;50.720;6.912;2022-12-20T12:04:06;12.40;99.90
15257;DHT22;7731;50.720;6.912;2022-12-20T12:06:50;12.40;99.90
15257;DHT22;7731;50.720;6.912;2022-12-20T12:09:30;12.50;99.90
15257;DHT22;7731;50.720;6.912;2022-12-20T12:12:22;12.50;99.90
15257;DHT22;7731;50.720;6.912;2022-12-20T12:15:01;12.40;99.90
15257;DHT22;7731;50.720;6.912;2022-12-20T12:17:46;12.40;99.90
15257;DHT22;7731;50.720;6.912;2022-12-20T12:20:27;12.50;99.90
15257;DHT22;7731;50.720;6.912;2022-12-20T12:23:15;12.50;99.90
15257;DHT22;7731;50.720;6.912;2022-12-20T12:25:50;12.50;99.90
15257;DHT22;7731;50.720;6.912;2022-12-20T12:28:25;12.50;99.90
15257;DHT22;7731;50.720;6.912;2022-12-20T12:30:59;12.50;99.90
15257;DHT22;7731;50.720;6.912;2022-12-20T12:33:41;12.50;99.90
15257;DHT22;7731;50.720;6.912;2022-12-20T12:36:38;12.50;99.90
15257;DHT22;7731;50.720;6.912;2022-12-20T12:39:49;12.50;99.90
15257;DHT22;7731;50.720;6.912;2022-12-20T12:43:06;12.50;99.90
15257;DHT22;7731;50.720;6.912;2022-12-20T12:46:01;12.50;99.90
15257;DHT22;7731;50.720;6.912;2022-12-20T12:48:42;12.50;99.90
15257;DHT22;7731;50.720;6.912;2022-12-20T12:51:25;12.50;99.90
15257;DHT22;7731;50.720;6.912;2022-12-20T12:54:13;12.50;99.90
15257;DHT22;7731;50.720;6.912;2022-12-20T12:56:59;12.50;99.90
15257;DHT22;7731;50.720;6.912;2022-12-20T12:59:49;12.50;99.90
15257;DHT22;7731;50.720;6.912;2022-12-20T13:02:34;12.50;99.90
15257;DHT22;7731;50.720;6.912;2022-12-20T13:05:38;12.50;99.90
15257;DHT22;7731;50.720;6.912;2022-12-20T13:08:15;12.50;99.90
15257;DHT22;7731;50.720;6.912;2022-12-20T13:10:58;12.50;99.90
15257;DHT22;7731;50.720;6.912;2022-12-20T13:13:32;12.50;99.90
15257;DHT22;7731;50.720;6.912;2022-12-20T13:16:12;12.40;99.90
15257;DHT22;7731;50.720;6.912;2022-12-20T13:19:32;12.40;99.90
15257;DHT22;7731;50.720;6.912;2022-12-20T13:22:19;12.30;99.90
15257;DHT22;7731;50.720;6.912;2022-12-20T13:24:53;12.30;99.90
15257;DHT22;7731;50.720;6.912;2022-12-20T13:27:29;12.20;99.90
15257;DHT22;7731;50.720;6.912;2022-12-20T13:30:26;12.10;99.90
15257;DHT22;7731;50.720;6.912;2022-12-20T13:33:17;12.00;99.90
15257;DHT22;7731;50.720;6.912;2022-12-20T13:36:01;12.00;99.90
15257;DHT22;7731;50.720;6.912;2022-12-20T13:38:55;12.10;99.90
15257;DHT22;7731;50.720;6.912;2022-12-20T13:41:43;12.10;99.90
15257;DHT22;7731;50.720;6.912;2022-12-20T13:44:39;12.10;99.90
15257;DHT22;7731;50.720;6.912;2022-12-20T13:50:28;12.10;99.90
15257;DHT22;7731;50.720;6.912;2022-12-20T13:53:02;12.00;99.90
15257;DHT22;7731;50.720;6.912;2022-12-20T13:55:37;12.00;99.90
15257;DHT22;7731;50.720;6.912;2022-12-20T13:58:13;12.00;99.90
15257;DHT22;7731;50.720;6.912;2022-12-20T14:00:46;12.00;99.90
15257;DHT22;7731;50.720;6.912;2022-12-20T14:03:26;11.90;99.90
15257;DHT22;7731;50.720;6.912;2022-12-20T14:06:01;11.90;99.90
15257;DHT22;7731;50.720;6.912;2022-12-20T14:08:35;11.80;99.90
15257;DHT22;7731;50.720;6.912;2022-12-20T14:11:12;11.80;99.90
15257;DHT22;7731;50.720;6.912;2022-12-20T14:13:50;11.80;99.90
15257;DHT22;7731;50.720;6.912;2022-12-20T14:16:23;11.90;99.90
15257;DHT22;7731;50.720;6.912;2022-12-20T14:19:05;11.90;99.90
15257;DHT22;7731;50.720;6.912;2022-12-20T14:21:38;12.00;99.90
15257;DHT22;7731;50.720;6.912;2022-12-20T14:24:14;12.00;99.90
15257;DHT22;7731;50.720;6.912;2022-12-20T14:26:47;12.20;99.90
15257;DHT22;7731;50.720;6.912;2022-12-20T14:29:28;12.20;99.90
15257;DHT22;7731;50.720;6.912;2022-12-20T14:31:59;12.30;99.90
15257;DHT22;7731;50.720;6.912;2022-12-20T14:34:34;12.30;99.90
15257;DHT22;7731;50.720;6.912;2022-12-20T14:37:26;12.30;99.90
15257;DHT22;7731;50.720;6.912;2022-12-20T14:40:02;12.20;99.90
15257;DHT22;7731;50.720;6.912;2022-12-20T14:42:43;12.20;99.90
15257;DHT22;7731;50.720;6.912;2022-12-20T14:45:20;12.30;99.90
15257;DHT22;7731;50.720;6.912;2022-12-20T14:48:00;12.30;99.90
15257;DHT22;7731;50.720;6.912;2022-12-20T14:50:37;12.20;99.90
15257;DHT22;7731;50.720;6.912;2022-12-20T14:53:16;12.20;99.90
15257;DHT22;7731;50.720;6.912;2022-12-20T14:55:49;12.20;99.90
15257;DHT22;7731;50.720;6.912;2022-12-20T14:58:25;12.30;99.90
15257;DHT22;7731;50.720;6.912;2022-12-20T15:00:59;12.30;99.90
15257;DHT22;7731;50.720;6.912;2022-12-20T15:03:32;12.20;99.90
15257;DHT22;7731;50.720;6.912;2022-12-20T15:06:33;12.20;99.90
15257;DHT22;7731;50.720;6.912;2022-12-20T15:09:06;12.20;99.90
15257;DHT22;7731;50.720;6.912;2022-12-20T15:11:37;12.10;99.90
15257;DHT22;7731;50.720;6.912;2022-12-20T15:17:10;12.00;99.90
15257;DHT22;7731;50.720;6.912;2022-12-20T15:19:43;12.10;99.90
15257;DHT22;7731;50.720;6.912;2022-12-20T15:22:18;12.20;99.90
15257;DHT22;7731;50.720;6.912;2022-12-20T15:24:49;12.10;99.90
15257;DHT22;7731;50.720;6.912;2022-12-20T15:27:22;12.20;99.90
15257;DHT22;7731;50.720;6.912;2022-12-20T15:29:53;12.20;99.90
15257;DHT22;7731;50.720;6.912;2022-12-20T15:32:26;12.10;99.90
15257;DHT22;7731;50.720;6.912;2022-12-20T15:34:58;12.00;99.90
15257;DHT22;7731;50.720;6.912;2022-12-20T15:37:38;12.00;99.90
15257;DHT22;7731;50.720;6.912;2022-12-20T15:40:13;12.00;99.90
15257;DHT22;7731;50.720;6.912;2022-12-20T15:42:43;11.90;99.90
15257;DHT22;7731;50.720;6.912;2022-12-20T15:45:14;11.90;99.90
15257;DHT22;7731;50.720;6.912;2022-12-20T15:47:47;11.90;99.90
15257;DHT22;7731;50.720;6.912;2022-12-20T15:50:17;11.90;99.90
15257;DHT22;7731;50.720;6.912;2022-12-20T15:52:51;11.90;99.90
15257;DHT22;7731;50.720;6.912;2022-12-20T15:55:22;11.90;99.90
15257;DHT22;7731;50.720;6.912;2022-12-20T15:57:53;11.90;99.90
15257;DHT22;7731;50.720;6.912;2022-12-20T16:00:23;11.90;99.90
15257;DHT22;7731;50.720;6.912;2022-12-20T16:02:53;11.90;99.90
15257;DHT22;7731;50.720;6.912;2022-12-20T16:05:25;11.90;99.90
15257;DHT22;7731;50.720;6.912;2022-12-20T16:07:59;11.90;99.90
15257;DHT22;7731;50.720;6.912;2022-12-20T16:10:29;11.90;99.90
15257;DHT22;7731;50.720;6.912;2022-12-20T16:13:04;12.00;99.90
15257;DHT22;7731;50.720;6.912;2022-12-20T16:15:35;12.00;99.90
15257;DHT22;7731;50.720;6.912;2022-12-20T16:18:06;11.90;99.90
15257;DHT22;7731;50.720;6.912;2022-12-20T16:20:36;11.90;99.90
15257;DHT22;7731;50.720;6.912;2022-12-20T16:23:16;11.90;99.90
15257;DHT22;7731;50.720;6.912;2022-12-20T16:25:49;11.80;99.90
15257;DHT22;7731;50.720;6.912;2022-12-20T16:28:20;11.80;99.90
15257;DHT22;7731;50.720;6.912;2022-12-20T16:30:50;11.80;99.90
15257;DHT22;7731;50.720;6.912;2022-12-20T16:33:20;11.80;99.90
15257;DHT22;7731;50.720;6.912;2022-12-20T16:35:51;11.80;99.90
15257;DHT22;7731;50.720;6.912;2022-12-20T16:38:23;11.70;99.90
15257;DHT22;7731;50.720;6.912;2022-12-20T16:40:54;11.70;99.90
15257;DHT22;7731;50.720;6.912;2022-12-20T16:43:24;11.60;99.90
15257;DHT22;7731;50.720;6.912;2022-12-20T16:45:54;11.60;99.90
15257;DHT22;7731;50.720;6.912;2022-12-20T16:48:24;11.60;99.90
15257;DHT22;7731;50.720;6.912;2022-12-20T16:50:54;11.60;99.90